Alturas, Florida
Current Conditions -  °F | °C
As of 12:50 PM on Thursday 18 Dec 2014 (Local Time) from KBOW Reporting Station
Scattered Clouds Scattered Clouds  
Wind Chill: 18°   Ceiling: Unl
Heat Index: 18°   Visibility: 10mi
Dew Point:   Wind: 12mph
Humidity: 49%   Direction: 300°WNW
Pressure: 30.17"   Gusts: NA
Location:  27.87°N, 81.71°W
Report Text: KBOW 181750Z 30010KT 10SM SCT200 18/07 A3017
Loading
Personal Weather Stations






























Interactive Weather Map New forecast layout! Learn more

10-Day Weather Forecast

Advertisements
Track Severe Weather on mobile